Time;durP1;ratioP1;P1;durP2;ratioP2;P2;SDS_P1;SDS_P2;PMS_P1;PMS_P2;Temp;Humidity;BMP_temperature;BMP_pressure;BME280_temperature;BME280_humidity;BME280_pressure;Samples;Min_cycle;Max_cycle;Signal;HPM_P1;HPM_P2
2023/05/09 00:00:50;;;;;;;41.80;27.55;;;11.80;82.70;;;;;;5114854;28;20290;-74
2023/05/09 00:03:16;;;;;;;42.53;28.30;;;11.80;82.80;;;;;;5116374;28;20050;-73
2023/05/09 00:05:42;;;;;;;41.53;27.90;;;11.80;82.40;;;;;;5110738;28;20012;-74
2023/05/09 00:08:08;;;;;;;42.58;28.73;;;11.80;82.30;;;;;;5098879;28;20081;-74
2023/05/09 00:10:33;;;;;;;42.55;29.35;;;11.80;82.10;;;;;;5112105;28;20027;-73
2023/05/09 00:12:59;;;;;;;45.03;30.98;;;11.90;82.30;;;;;;5114058;28;20070;-73
2023/05/09 00:15:25;;;;;;;43.90;30.55;;;11.90;83.00;;;;;;5099994;28;20451;-73
2023/05/09 00:17:51;;;;;;;43.35;30.30;;;12.00;84.00;;;;;;5098427;28;20065;-74
2023/05/09 00:20:17;;;;;;;45.75;30.70;;;12.00;83.90;;;;;;5117167;28;20026;-73
2023/05/09 00:22:43;;;;;;;41.83;29.85;;;11.90;83.30;;;;;;5118084;28;20028;-73
2023/05/09 00:25:10;;;;;;;46.47;32.08;;;12.00;83.60;;;;;;5116353;28;20038;-74
2023/05/09 00:27:35;;;;;;;46.08;32.45;;;12.00;83.80;;;;;;5119461;28;20116;-73
2023/05/09 00:30:03;;;;;;;39.72;29.33;;;12.00;84.30;;;;;;5117472;28;20069;-73
2023/05/09 00:32:32;;;;;;;42.85;30.05;;;12.00;84.00;;;;;;5107833;28;20032;-73
2023/05/09 00:34:58;;;;;;;43.25;31.10;;;11.90;83.50;;;;;;5108550;28;20446;-74
2023/05/09 00:37:23;;;;;;;40.75;29.02;;;11.90;83.50;;;;;;5116909;28;20088;-74
2023/05/09 00:39:49;;;;;;;43.50;30.52;;;11.90;83.10;;;;;;5116053;28;20028;-73
2023/05/09 00:42:15;;;;;;;43.90;29.92;;;11.80;83.30;;;;;;5118070;28;20054;-73
2023/05/09 00:44:41;;;;;;;46.55;30.77;;;11.80;82.70;;;;;;5113651;28;20053;-73
2023/05/09 00:47:07;;;;;;;44.70;30.92;;;11.80;81.90;;;;;;5117175;28;20023;-73
2023/05/09 00:49:33;;;;;;;41.92;29.10;;;11.80;82.10;;;;;;5115473;28;20106;-73
2023/05/09 00:51:58;;;;;;;39.40;26.75;;;11.80;81.50;;;;;;5111436;28;20469;-73
2023/05/09 00:54:25;;;;;;;46.83;28.02;;;11.80;82.20;;;;;;5112485;28;20031;-73
2023/05/09 00:56:50;;;;;;;42.15;28.98;;;11.90;82.40;;;;;;5115989;28;20024;-74
2023/05/09 00:59:17;;;;;;;41.15;27.15;;;11.90;83.10;;;;;;5113710;28;20428;-74
2023/05/09 01:01:42;;;;;;;37.85;27.25;;;11.90;82.20;;;;;;5114296;28;20023;-74
2023/05/09 01:04:09;;;;;;;38.58;26.63;;;11.90;81.80;;;;;;5113571;28;20022;-73
2023/05/09 01:06:49;;;;;;;39.55;27.55;;;12.00;82.80;;;;;;5097925;28;20019;-74
2023/05/09 01:09:42;;;;;;;40.35;29.02;;;12.00;82.20;;;;;;5113785;28;20023;-73
2023/05/09 01:12:23;;;;;;;37.45;27.00;;;12.10;82.20;;;;;;5089510;28;20428;-74
2023/05/09 01:15:03;;;;;;;41.38;28.20;;;12.10;83.00;;;;;;5112776;28;20031;-74
2023/05/09 01:17:46;;;;;;;44.60;29.63;;;12.20;83.00;;;;;;5113920;28;20085;-73
2023/05/09 01:20:17;;;;;;;40.25;27.05;;;12.20;82.20;;;;;;5111098;28;20041;-73
2023/05/09 01:22:52;;;;;;;37.70;27.33;;;12.20;81.30;;;;;;5111146;28;20039;-73
2023/05/09 01:25:33;;;;;;;44.17;28.40;;;12.20;80.90;;;;;;5097845;28;20323;-74
2023/05/09 01:28:17;;;;;;;40.45;28.48;;;12.20;79.90;;;;;;5117270;28;20489;-75
2023/05/09 01:30:45;;;;;;;44.17;30.77;;;12.10;78.90;;;;;;5111432;28;20161;-74
2023/05/09 01:33:18;;;;;;;49.55;32.03;;;12.20;79.80;;;;;;5114978;28;20290;-74
2023/05/09 01:35:48;;;;;;;39.38;27.63;;;12.10;79.30;;;;;;5114820;28;20110;-74
2023/05/09 01:38:18;;;;;;;44.20;30.48;;;12.10;78.90;;;;;;5114002;28;20156;-73
2023/05/09 01:40:47;;;;;;;49.30;30.70;;;12.10;79.20;;;;;;5112379;28;20020;-74
2023/05/09 01:43:15;;;;;;;46.05;31.25;;;12.10;78.60;;;;;;5110583;28;20047;-74
2023/05/09 01:45:42;;;;;;;47.50;32.17;;;12.10;78.10;;;;;;5113684;28;20080;-74
2023/05/09 01:48:09;;;;;;;45.55;30.23;;;12.10;77.90;;;;;;5091805;28;20027;-74
2023/05/09 01:50:36;;;;;;;41.72;31.15;;;12.10;77.60;;;;;;5092439;28;20032;-73
2023/05/09 01:53:04;;;;;;;47.10;30.58;;;12.10;77.30;;;;;;5090128;28;20032;-74
2023/05/09 01:55:33;;;;;;;41.92;28.35;;;12.10;77.10;;;;;;5090295;28;20396;-74
2023/05/09 01:57:59;;;;;;;46.85;30.67;;;12.00;77.00;;;;;;5071407;28;20059;-74
2023/05/09 02:00:25;;;;;;;41.00;28.92;;;12.00;77.20;;;;;;5091271;28;20019;-74
2023/05/09 02:02:51;;;;;;;44.42;30.00;;;12.00;76.70;;;;;;5089761;28;20028;-74
2023/05/09 02:05:18;;;;;;;48.50;31.05;;;12.00;76.50;;;;;;5091366;28;20028;-74
2023/05/09 02:07:46;;;;;;;48.53;32.95;;;12.00;77.00;;;;;;5088824;28;20036;-74
2023/05/09 02:10:14;;;;;;;43.22;30.00;;;12.10;77.10;;;;;;5097903;28;20024;-74
2023/05/09 02:12:40;;;;;;;44.50;29.85;;;12.10;77.70;;;;;;5101606;28;20456;-73
2023/05/09 02:15:06;;;;;;;45.25;29.35;;;12.10;78.60;;;;;;5101257;28;20119;-74
2023/05/09 02:17:32;;;;;;;40.42;28.67;;;12.10;78.70;;;;;;5117234;28;20073;-74
2023/05/09 02:19:57;;;;;;;50.28;31.70;;;12.10;78.40;;;;;;5106648;28;20039;-74
2023/05/09 02:22:23;;;;;;;44.75;29.80;;;12.10;78.30;;;;;;5105331;28;20485;-74
2023/05/09 02:24:49;;;;;;;46.20;31.25;;;12.10;77.90;;;;;;5088157;28;20443;-74
2023/05/09 02:27:15;;;;;;;49.67;31.63;;;12.10;78.10;;;;;;5113115;28;20035;-73
2023/05/09 02:29:46;;;;;;;46.78;31.55;;;12.10;77.80;;;;;;5108792;28;20028;-74
2023/05/09 02:32:20;;;;;;;48.80;33.05;;;12.10;78.00;;;;;;5107409;28;20024;-73
2023/05/09 02:34:49;;;;;;;44.42;31.13;;;12.10;78.70;;;;;;5108037;28;20360;-74
2023/05/09 02:37:16;;;;;;;45.35;30.90;;;12.20;79.40;;;;;;5108122;28;20039;-74
2023/05/09 02:39:42;;;;;;;48.42;30.88;;;12.20;79.90;;;;;;5110176;28;20069;-74
2023/05/09 02:42:10;;;;;;;44.60;29.20;;;12.10;79.00;;;;;;5108476;28;20092;-74
2023/05/09 02:44:36;;;;;;;47.22;30.75;;;12.10;78.10;;;;;;5109107;28;20020;-74
2023/05/09 02:47:02;;;;;;;44.25;30.73;;;12.10;77.60;;;;;;5101263;28;20312;-74
2023/05/09 02:49:28;;;;;;;45.90;30.17;;;12.10;77.30;;;;;;5104895;28;20080;-74
2023/05/09 02:51:53;;;;;;;50.33;31.48;;;12.00;77.10;;;;;;5101284;28;20454;-74
2023/05/09 02:54:20;;;;;;;60.83;35.88;;;12.00;76.00;;;;;;5109330;28;20047;-73
2023/05/09 02:56:46;;;;;;;48.33;30.75;;;11.90;75.60;;;;;;5108001;28;20039;-73
2023/05/09 02:59:11;;;;;;;42.97;29.95;;;11.80;74.40;;;;;;5095943;28;20115;-74
2023/05/09 03:01:37;;;;;;;50.95;32.45;;;11.70;73.80;;;;;;5098559;28;20058;-74
2023/05/09 03:04:03;;;;;;;51.85;32.75;;;11.60;73.20;;;;;;5102585;28;20036;-73
2023/05/09 03:06:28;;;;;;;46.55;31.90;;;11.50;73.40;;;;;;5107784;28;20028;-74
2023/05/09 03:08:57;;;;;;;51.75;34.22;;;11.40;72.10;;;;;;5102198;28;20047;-74
2023/05/09 03:11:22;;;;;;;48.97;30.58;;;11.30;70.70;;;;;;5100346;28;20077;-74
2023/05/09 03:13:48;;;;;;;53.30;32.00;;;11.20;70.70;;;;;;5109066;28;20420;-74
2023/05/09 03:16:17;;;;;;;58.38;35.33;;;11.10;70.30;;;;;;5080362;28;20030;-74
2023/05/09 03:18:42;;;;;;;55.35;35.80;;;11.10;68.60;;;;;;5108908;28;20028;-74
2023/05/09 03:21:08;;;;;;;68.30;40.60;;;11.10;68.00;;;;;;5108806;28;20023;-73
2023/05/09 03:23:33;;;;;;;66.13;40.03;;;11.00;67.80;;;;;;5105875;28;20023;-73
2023/05/09 03:25:59;;;;;;;76.15;43.05;;;11.00;66.90;;;;;;5107502;28;20047;-73
2023/05/09 03:28:24;;;;;;;59.88;37.60;;;11.00;67.90;;;;;;5106233;28;20073;-73
2023/05/09 03:30:50;;;;;;;66.47;41.65;;;11.00;66.70;;;;;;5109163;28;20028;-73
2023/05/09 03:33:18;;;;;;;67.03;40.78;;;10.90;66.60;;;;;;5106271;28;20023;-73
2023/05/09 03:35:44;;;;;;;71.72;41.60;;;10.90;66.70;;;;;;5104963;28;20301;-73
2023/05/09 03:38:09;;;;;;;65.60;40.05;;;10.80;66.50;;;;;;5112417;28;20032;-73
2023/05/09 03:40:35;;;;;;;78.22;44.53;;;10.80;66.40;;;;;;5109466;28;20024;-73
2023/05/09 03:43:00;;;;;;;53.30;34.88;;;10.70;66.40;;;;;;5112129;28;20085;-73
2023/05/09 03:45:26;;;;;;;62.55;38.90;;;10.70;66.20;;;;;;5099867;28;20032;-74
2023/05/09 03:47:52;;;;;;;64.47;39.55;;;10.60;65.70;;;;;;5107672;28;20035;-74
2023/05/09 03:50:17;;;;;;;67.60;42.28;;;10.60;65.60;;;;;;5104080;28;20024;-73
2023/05/09 03:52:43;;;;;;;70.20;41.50;;;10.60;63.50;;;;;;5109955;28;20027;-73
2023/05/09 03:55:09;;;;;;;68.13;38.83;;;10.60;64.40;;;;;;5104200;28;20063;-73
2023/05/09 03:57:35;;;;;;;70.22;40.85;;;10.60;64.10;;;;;;5109496;28;20027;-73
2023/05/09 04:00:01;;;;;;;67.47;40.08;;;10.60;63.90;;;;;;5112985;28;20020;-73
2023/05/09 04:02:27;;;;;;;79.97;42.38;;;10.60;63.60;;;;;;5103698;28;20142;-73
2023/05/09 04:04:55;;;;;;;67.82;40.70;;;10.60;63.40;;;;;;5093935;28;20504;-73
2023/05/09 04:07:21;;;;;;;72.05;41.08;;;10.70;62.70;;;;;;5106282;28;20019;-73
2023/05/09 04:09:48;;;;;;;66.07;38.90;;;10.80;62.50;;;;;;5090063;28;20034;-73
2023/05/09 04:12:13;;;;;;;72.00;41.70;;;10.80;62.60;;;;;;5105161;28;20043;-73
2023/05/09 04:14:39;;;;;;;62.03;36.90;;;10.90;62.40;;;;;;5104908;28;20035;-73
2023/05/09 04:17:05;;;;;;;59.45;36.13;;;10.90;62.70;;;;;;5106345;28;20028;-73
2023/05/09 04:19:31;;;;;;;72.07;40.08;;;10.90;63.20;;;;;;5110899;28;20038;-73
2023/05/09 04:21:56;;;;;;;55.78;34.65;;;10.90;63.80;;;;;;5106431;28;20298;-74
2023/05/09 04:24:22;;;;;;;59.65;35.72;;;10.80;63.90;;;;;;5104806;28;20066;-74
2023/05/09 04:26:47;;;;;;;55.72;33.25;;;10.80;64.10;;;;;;5104023;28;20024;-74
2023/05/09 04:29:13;;;;;;;53.45;32.67;;;10.70;64.30;;;;;;5105547;28;20038;-74
2023/05/09 04:31:38;;;;;;;61.83;35.47;;;10.70;63.90;;;;;;5108609;28;20028;-74
2023/05/09 04:34:04;;;;;;;61.88;36.20;;;10.60;63.80;;;;;;5094216;28;20063;-74
2023/05/09 04:36:30;;;;;;;66.57;36.72;;;10.60;63.60;;;;;;5106460;28;20020;-73
2023/05/09 04:38:56;;;;;;;63.15;35.72;;;10.60;63.80;;;;;;5111273;28;20030;-73
2023/05/09 04:41:22;;;;;;;59.55;35.00;;;10.60;63.50;;;;;;5105471;28;20023;-73
2023/05/09 04:43:57;;;;;;;69.20;37.58;;;10.60;63.40;;;;;;5115715;28;20023;-74
2023/05/09 04:46:22;;;;;;;64.68;37.35;;;10.60;63.20;;;;;;5108717;28;20034;-74
2023/05/09 04:48:48;;;;;;;70.40;36.85;;;10.60;62.70;;;;;;5114466;28;20028;-73
2023/05/09 04:51:13;;;;;;;79.97;39.53;;;10.70;62.80;;;;;;5118749;28;20027;-73
2023/05/09 04:53:39;;;;;;;62.08;36.33;;;10.70;62.30;;;;;;5111757;28;20027;-73
2023/05/09 04:56:05;;;;;;;63.28;35.42;;;10.80;62.10;;;;;;5114984;27;20024;-73
2023/05/09 04:58:32;;;;;;;56.65;34.30;;;10.90;61.90;;;;;;5114156;28;20035;-74
2023/05/09 05:00:57;;;;;;;53.78;33.40;;;11.00;62.10;;;;;;5098671;28;20325;-73
2023/05/09 05:03:23;;;;;;;58.58;36.25;;;11.10;62.00;;;;;;5114822;28;20050;-74
2023/05/09 05:05:48;;;;;;;49.67;32.95;;;11.20;62.50;;;;;;5110893;28;20024;-73
2023/05/09 05:08:14;;;;;;;57.83;35.65;;;11.30;62.40;;;;;;5115315;28;20031;-73
2023/05/09 05:10:39;;;;;;;59.28;34.60;;;11.40;62.90;;;;;;5109828;28;20039;-73
2023/05/09 05:13:05;;;;;;;51.85;33.78;;;11.50;63.00;;;;;;5113666;28;20102;-73
2023/05/09 05:15:30;;;;;;;46.13;30.55;;;11.70;63.60;;;;;;5101723;28;20050;-73
2023/05/09 05:17:56;;;;;;;40.90;29.52;;;11.80;65.20;;;;;;5114391;28;20032;-73
2023/05/09 05:20:22;;;;;;;37.03;26.65;;;12.00;65.50;;;;;;5114328;28;20024;-74
2023/05/09 05:22:47;;;;;;;39.17;28.65;;;12.20;67.10;;;;;;5109406;28;20015;-73
2023/05/09 05:25:13;;;;;;;35.65;25.58;;;12.30;70.50;;;;;;5110235;28;20055;-74
2023/05/09 05:27:39;;;;;;;31.17;23.13;;;12.50;71.50;;;;;;5112388;28;20032;-73
2023/05/09 05:30:06;;;;;;;30.75;21.83;;;12.70;73.50;;;;;;5116120;28;20028;-74
2023/05/09 05:32:31;;;;;;;27.88;22.27;;;12.90;77.80;;;;;;5115771;28;20027;-74
2023/05/09 05:34:57;;;;;;;24.50;19.42;;;13.10;81.80;;;;;;5116958;28;20028;-74
2023/05/09 05:37:23;;;;;;;23.23;17.98;;;13.30;85.50;;;;;;5114572;28;20123;-74
2023/05/09 05:39:50;;;;;;;21.73;17.15;;;13.50;86.70;;;;;;5098125;28;20023;-74
2023/05/09 05:42:16;;;;;;;21.63;17.75;;;13.70;90.00;;;;;;5116939;28;20459;-74
2023/05/09 05:44:41;;;;;;;19.50;16.08;;;13.90;92.50;;;;;;5116669;28;20024;-74
2023/05/09 05:47:07;;;;;;;23.20;18.10;;;14.00;93.80;;;;;;5118222;28;20023;-74
2023/05/09 05:49:32;;;;;;;25.17;19.30;;;14.10;95.00;;;;;;5097748;28;20324;-74
2023/05/09 05:51:58;;;;;;;23.58;18.73;;;14.20;94.30;;;;;;5115442;28;20404;-74
2023/05/09 05:54:23;;;;;;;22.20;18.25;;;14.20;94.90;;;;;;5113328;28;20364;-74
2023/05/09 05:56:49;;;;;;;21.77;17.92;;;14.20;95.60;;;;;;5103000;28;20036;-74
2023/05/09 05:59:15;;;;;;;22.73;17.77;;;14.20;95.30;;;;;;5114129;28;20383;-74
2023/05/09 06:01:40;;;;;;;24.00;17.85;;;14.30;96.00;;;;;;5116816;28;20020;-74
2023/05/09 06:04:06;;;;;;;23.13;17.30;;;14.30;96.00;;;;;;5117834;28;20046;-74
2023/05/09 06:06:32;;;;;;;19.35;15.68;;;14.40;95.40;;;;;;5116615;28;20024;-74
2023/05/09 06:08:57;;;;;;;19.92;14.80;;;14.60;95.60;;;;;;5115445;28;20020;-74
2023/05/09 06:11:23;;;;;;;19.50;15.55;;;14.90;97.30;;;;;;5113278;28;20034;-74
2023/05/09 06:13:49;;;;;;;17.63;14.32;;;15.10;97.50;;;;;;5097821;28;20031;-74
2023/05/09 06:16:14;;;;;;;16.98;14.48;;;15.30;98.00;;;;;;5112623;27;20438;-74
2023/05/09 06:18:40;;;;;;;17.92;14.82;;;15.40;98.00;;;;;;5114465;28;20028;-74
2023/05/09 06:21:11;;;;;;;17.90;14.50;;;15.60;98.00;;;;;;5114279;28;20030;-74
2023/05/09 06:23:37;;;;;;;17.55;14.13;;;15.70;98.00;;;;;;5113575;28;20447;-74
2023/05/09 06:26:03;;;;;;;17.48;14.55;;;15.70;98.00;;;;;;5099281;28;20038;-74
2023/05/09 06:28:29;;;;;;;18.67;14.65;;;15.60;98.00;;;;;;5115224;28;20028;-74
2023/05/09 06:30:54;;;;;;;16.95;13.50;;;15.70;98.00;;;;;;5116221;28;20047;-74
2023/05/09 06:33:20;;;;;;;17.17;13.60;;;15.90;98.00;;;;;;5117278;28;20034;-74
2023/05/09 06:35:45;;;;;;;18.60;13.95;;;16.10;98.00;;;;;;5113655;28;20327;-74
2023/05/09 06:38:11;;;;;;;18.75;13.63;;;16.30;98.00;;;;;;5113161;28;20124;-74
2023/05/09 06:40:36;;;;;;;18.88;15.32;;;16.50;98.00;;;;;;5114154;28;20056;-74
2023/05/09 06:43:02;;;;;;;18.50;15.40;;;16.60;98.00;;;;;;5107310;28;20039;-74
2023/05/09 06:45:29;;;;;;;17.02;13.75;;;16.70;98.00;;;;;;5114427;28;20020;-74
2023/05/09 06:47:55;;;;;;;15.30;13.05;;;17.00;98.00;;;;;;5113908;28;20023;-74
2023/05/09 06:50:20;;;;;;;14.57;11.88;;;17.20;98.00;;;;;;5094378;28;20095;-74
2023/05/09 06:52:47;;;;;;;17.02;14.23;;;17.20;98.00;;;;;;5112986;28;20048;-74
2023/05/09 06:55:12;;;;;;;25.90;18.15;;;17.40;97.80;;;;;;5115599;28;20027;-74
2023/05/09 06:57:41;;;;;;;47.60;28.67;;;17.40;97.80;;;;;;5116018;28;20153;-74
2023/05/09 07:00:08;;;;;;;33.75;23.73;;;17.40;97.60;;;;;;5115017;28;20308;-74
2023/05/09 07:02:34;;;;;;;21.40;15.13;;;17.20;97.60;;;;;;5115862;28;20028;-74
2023/05/09 07:05:00;;;;;;;15.00;12.27;;;17.20;97.70;;;;;;5116087;28;20302;-74
2023/05/09 07:07:25;;;;;;;17.13;13.15;;;17.20;98.00;;;;;;5114519;28;20028;-74
2023/05/09 07:09:51;;;;;;;16.90;13.63;;;17.50;97.60;;;;;;5111196;28;20114;-74
2023/05/09 07:12:16;;;;;;;15.50;11.32;;;17.60;97.60;;;;;;5113364;28;20035;-73
2023/05/09 07:14:42;;;;;;;18.80;12.88;;;17.80;97.40;;;;;;5116558;28;20027;-74
2023/05/09 07:17:07;;;;;;;14.73;12.13;;;18.10;96.90;;;;;;5116698;28;20051;-76
2023/05/09 07:19:33;;;;;;;15.55;10.73;;;18.10;95.70;;;;;;5116400;28;20026;-74
2023/05/09 07:21:59;;;;;;;12.32;9.65;;;18.40;95.70;;;;;;5116692;28;20058;-75
2023/05/09 07:24:24;;;;;;;13.63;9.70;;;18.80;94.30;;;;;;5115411;28;20020;-74
2023/05/09 07:26:50;;;;;;;15.52;11.32;;;19.10;94.40;;;;;;5115615;28;20050;-74
2023/05/09 07:29:17;;;;;;;13.45;9.52;;;19.50;92.90;;;;;;5116564;28;20028;-74
2023/05/09 07:31:42;;;;;;;12.32;8.88;;;19.70;93.80;;;;;;5116357;28;20027;-74
2023/05/09 07:34:08;;;;;;;13.05;9.90;;;20.10;91.90;;;;;;5116501;28;20085;-74
2023/05/09 07:36:33;;;;;;;12.32;10.15;;;20.10;91.20;;;;;;5116335;28;20104;-74
2023/05/09 07:38:59;;;;;;;15.00;11.00;;;19.80;91.00;;;;;;5115243;28;20024;-74
2023/05/09 07:41:25;;;;;;;12.98;9.95;;;19.60;92.50;;;;;;5115293;28;20490;-74
2023/05/09 07:43:51;;;;;;;13.50;9.93;;;19.20;91.80;;;;;;5116255;28;20034;-74
2023/05/09 07:46:16;;;;;;;11.75;8.90;;;18.90;94.50;;;;;;5116411;28;20313;-74
2023/05/09 07:48:42;;;;;;;14.43;10.13;;;19.30;93.90;;;;;;5116189;28;20173;-74
2023/05/09 07:51:08;;;;;;;12.20;9.20;;;20.00;92.10;;;;;;5116232;28;20027;-74
2023/05/09 07:53:33;;;;;;;10.25;7.90;;;20.50;90.80;;;;;;5114960;28;20042;-74
2023/05/09 07:55:59;;;;;;;9.93;7.97;;;20.80;89.40;;;;;;5113624;28;20031;-74
2023/05/09 07:58:25;;;;;;;14.02;8.20;;;21.00;89.50;;;;;;5113593;28;20032;-74
2023/05/09 08:00:50;;;;;;;11.80;8.38;;;20.90;89.10;;;;;;5095481;28;20085;-74
2023/05/09 08:03:16;;;;;;;12.10;8.77;;;20.70;88.00;;;;;;5116120;28;20477;-74
2023/05/09 08:05:41;;;;;;;11.38;8.98;;;20.60;89.40;;;;;;5116111;28;20363;-74
2023/05/09 08:08:07;;;;;;;15.23;10.35;;;20.70;89.10;;;;;;5114946;28;20058;-74
2023/05/09 08:10:32;;;;;;;13.95;10.27;;;20.70;88.80;;;;;;5116171;28;20023;-74
2023/05/09 08:12:58;;;;;;;13.98;9.18;;;20.60;88.50;;;;;;5116847;28;20023;-74
2023/05/09 08:15:24;;;;;;;11.75;9.02;;;20.30;89.40;;;;;;5119209;28;20027;-74
2023/05/09 08:17:50;;;;;;;12.65;9.10;;;20.00;89.30;;;;;;5119989;28;20088;-74
2023/05/09 08:20:16;;;;;;;8.80;6.90;;;20.00;90.40;;;;;;5119998;28;20016;-74
2023/05/09 08:22:41;;;;;;;11.18;7.32;;;19.70;88.80;;;;;;5118813;28;20023;-74
2023/05/09 08:25:07;;;;;;;10.18;6.85;;;19.30;91.10;;;;;;5101821;28;20312;-74
2023/05/09 08:27:33;;;;;;;10.32;7.05;;;18.90;91.40;;;;;;5119033;28;20031;-74
2023/05/09 08:29:59;;;;;;;10.13;6.75;;;18.90;92.20;;;;;;5119015;28;20424;-74
2023/05/09 08:32:24;;;;;;;11.20;7.63;;;18.80;93.60;;;;;;5119807;28;20028;-74
2023/05/09 08:34:50;;;;;;;12.10;8.75;;;18.80;93.20;;;;;;5119793;28;20046;-74
2023/05/09 08:37:16;;;;;;;12.88;9.90;;;18.80;93.10;;;;;;5119249;28;20416;-74
2023/05/09 08:39:41;;;;;;;11.45;8.43;;;18.80;93.00;;;;;;5118762;28;20362;-74
2023/05/09 08:42:09;;;;;;;11.95;8.73;;;18.90;93.80;;;;;;5119430;28;20047;-74
2023/05/09 08:44:35;;;;;;;11.25;8.27;;;19.00;92.80;;;;;;5113298;28;20024;-74
2023/05/09 08:47:02;;;;;;;10.30;7.95;;;19.40;91.80;;;;;;5116282;28;20042;-74
2023/05/09 08:49:28;;;;;;;12.23;8.98;;;19.70;91.60;;;;;;5114669;28;20424;-74
2023/05/09 08:51:55;;;;;;;13.68;9.63;;;20.20;90.00;;;;;;5118481;28;20115;-74
2023/05/09 08:54:22;;;;;;;10.45;7.95;;;20.60;88.40;;;;;;5117143;28;20098;-74
2023/05/09 08:56:48;;;;;;;10.35;7.85;;;20.60;88.30;;;;;;5097001;28;20038;-74
2023/05/09 08:59:15;;;;;;;10.65;7.45;;;20.50;88.90;;;;;;5098831;28;20100;-74
2023/05/09 09:01:41;;;;;;;7.80;5.80;;;21.60;86.30;;;;;;5113705;28;20290;-74
2023/05/09 09:04:08;;;;;;;10.35;6.95;;;22.40;84.70;;;;;;5114984;28;20035;-74
2023/05/09 09:06:34;;;;;;;12.55;9.48;;;22.10;83.10;;;;;;5092359;28;20023;-74
2023/05/09 09:09:01;;;;;;;13.68;9.77;;;21.00;84.20;;;;;;5114655;28;20138;-74
2023/05/09 09:11:30;;;;;;;10.68;7.90;;;20.20;87.40;;;;;;5102641;28;20115;-74
2023/05/09 09:14:00;;;;;;;9.18;6.85;;;20.20;88.70;;;;;;5117459;28;20071;-74
2023/05/09 09:16:27;;;;;;;11.00;7.82;;;21.10;86.60;;;;;;5110190;28;20020;-74
2023/05/09 09:18:54;;;;;;;12.57;9.10;;;21.80;84.20;;;;;;5117752;28;20100;-74
2023/05/09 09:21:21;;;;;;;10.07;7.82;;;21.20;83.10;;;;;;5117477;28;20320;-74
2023/05/09 09:23:47;;;;;;;13.43;8.48;;;20.40;86.30;;;;;;5117578;28;20024;-74
2023/05/09 09:26:13;;;;;;;13.38;8.73;;;19.90;88.70;;;;;;5114665;28;20145;-74
2023/05/09 09:28:40;;;;;;;10.27;7.60;;;19.50;90.50;;;;;;5118623;28;20031;-74
2023/05/09 09:31:23;;;;;;;10.02;6.90;;;19.80;91.00;;;;;;5116789;28;20032;-74
2023/05/09 09:33:49;;;;;;;9.73;6.63;;;20.50;89.60;;;;;;5118440;28;20020;-74
2023/05/09 09:36:15;;;;;;;8.93;6.40;;;21.30;85.20;;;;;;5117604;28;20076;-74
2023/05/09 09:38:45;;;;;;;10.50;6.85;;;21.70;85.60;;;;;;5117382;28;20024;-74
2023/05/09 09:41:12;;;;;;;7.90;5.97;;;22.30;82.30;;;;;;5099573;28;20028;-74
2023/05/09 09:43:37;;;;;;;7.88;5.57;;;22.90;80.10;;;;;;5118309;28;20333;-74
2023/05/09 09:46:04;;;;;;;7.50;4.97;;;23.40;81.60;;;;;;5116495;28;20042;-74
2023/05/09 09:48:32;;;;;;;6.43;4.47;;;24.00;80.40;;;;;;5118297;28;20023;-74
2023/05/09 09:51:08;;;;;;;11.90;4.60;;;24.30;77.00;;;;;;5117389;28;20034;-74
2023/05/09 09:53:43;;;;;;;7.82;4.53;;;24.20;78.10;;;;;;5116820;28;20020;-74
2023/05/09 09:56:12;;;;;;;8.48;4.40;;;24.90;77.80;;;;;;5099361;28;20027;-74
2023/05/09 09:58:38;;;;;;;6.47;4.15;;;24.90;76.20;;;;;;5118185;28;20020;-74
2023/05/09 10:01:09;;;;;;;5.95;4.00;;;24.70;78.30;;;;;;5116193;28;20043;-73
2023/05/09 10:03:39;;;;;;;7.45;4.20;;;24.70;76.70;;;;;;5116178;28;20323;-72
2023/05/09 10:06:12;;;;;;;6.85;3.70;;;24.50;76.40;;;;;;5108928;27;20042;-72
2023/05/09 10:08:39;;;;;;;5.82;3.30;;;23.90;77.60;;;;;;5116489;28;20027;-73
2023/05/09 10:11:08;;;;;;;5.00;3.40;;;23.70;78.80;;;;;;5116930;28;20106;-75
2023/05/09 10:13:37;;;;;;;7.03;3.88;;;23.70;79.90;;;;;;5116980;28;20024;-73
2023/05/09 10:16:04;;;;;;;8.05;4.07;;;23.60;78.70;;;;;;5098204;28;20297;-73
2023/05/09 10:18:30;;;;;;;8.00;4.10;;;23.60;77.80;;;;;;5117782;28;20020;-73
2023/05/09 10:21:00;;;;;;;6.30;4.10;;;23.70;78.50;;;;;;5097148;28;20028;-73
2023/05/09 10:23:28;;;;;;;8.13;4.22;;;23.80;79.10;;;;;;5113456;28;20404;-73
2023/05/09 10:26:05;;;;;;;7.20;4.30;;;24.30;78.90;;;;;;5115275;28;20065;-73
2023/05/09 10:28:32;;;;;;;7.00;3.65;;;24.30;78.80;;;;;;5114478;28;20293;-73
2023/05/09 10:31:14;;;;;;;5.93;3.80;;;24.90;77.40;;;;;;5113417;27;20026;-73
2023/05/09 10:33:45;;;;;;;6.50;3.75;;;24.90;75.40;;;;;;5114327;28;20031;-73
2023/05/09 10:36:11;;;;;;;7.80;3.10;;;24.60;76.10;;;;;;5115688;28;20328;-73
2023/05/09 10:38:38;;;;;;;6.65;3.33;;;25.00;75.20;;;;;;5112256;28;20024;-73
2023/05/09 10:41:04;;;;;;;6.40;3.50;;;25.40;74.00;;;;;;5117320;28;20466;-73
2023/05/09 10:43:32;;;;;;;7.68;3.47;;;25.60;72.30;;;;;;5096084;28;20406;-73
2023/05/09 10:45:57;;;;;;;5.32;3.13;;;25.20;73.10;;;;;;5116133;28;20024;-73
2023/05/09 10:48:24;;;;;;;4.90;2.53;;;25.40;72.30;;;;;;5113598;28;20034;-73
2023/05/09 10:50:50;;;;;;;5.22;2.75;;;25.70;72.10;;;;;;5116594;28;20114;-73
2023/05/09 10:53:20;;;;;;;5.65;3.00;;;25.80;75.00;;;;;;5110742;28;20179;-73
2023/05/09 10:55:46;;;;;;;4.75;2.83;;;26.20;71.00;;;;;;5111908;27;20035;-73
2023/05/09 10:58:25;;;;;;;5.25;3.03;;;26.00;72.00;;;;;;5115826;28;20495;-73
2023/05/09 11:00:52;;;;;;;5.13;3.10;;;26.00;72.10;;;;;;5118571;27;20064;-73
2023/05/09 11:03:23;;;;;;;4.93;3.05;;;26.00;70.70;;;;;;5116103;28;20024;-72
2023/05/09 11:05:51;;;;;;;4.63;2.60;;;25.80;72.00;;;;;;5124259;27;20061;-73
2023/05/09 11:08:30;;;;;;;6.00;3.60;;;25.90;73.30;;;;;;5115622;28;20060;-73
2023/05/09 11:11:05;;;;;;;4.70;2.80;;;26.10;71.30;;;;;;5114901;28;20039;-72
2023/05/09 11:13:35;;;;;;;7.28;3.40;;;26.40;70.70;;;;;;5116856;28;20110;-73
2023/05/09 11:16:07;;;;;;;6.55;4.35;;;26.60;70.40;;;;;;5116071;27;20451;-73
2023/05/09 11:18:32;;;;;;;7.13;3.78;;;26.30;69.00;;;;;;5137177;27;20034;-72
2023/05/09 11:21:05;;;;;;;7.47;4.25;;;25.70;70.00;;;;;;5116328;27;20032;-72
2023/05/09 11:23:32;;;;;;;9.37;3.60;;;25.60;71.60;;;;;;5115589;28;20098;-73
2023/05/09 11:26:06;;;;;;;6.65;3.60;;;25.40;73.40;;;;;;5114231;28;20408;-72
2023/05/09 11:28:36;;;;;;;7.78;3.72;;;26.00;71.50;;;;;;5115704;28;20293;-73
2023/05/09 11:31:17;;;;;;;6.38;3.20;;;25.90;70.90;;;;;;5116471;28;20038;-73
2023/05/09 11:33:47;;;;;;;5.43;3.03;;;25.80;72.70;;;;;;5115464;28;20023;-73
2023/05/09 11:36:17;;;;;;;5.45;3.42;;;26.10;73.10;;;;;;5115385;28;20050;-73
2023/05/09 11:38:44;;;;;;;8.43;3.67;;;25.90;71.00;;;;;;5113146;28;20380;-73
2023/05/09 11:41:10;;;;;;;6.30;3.78;;;24.60;74.50;;;;;;5114715;28;20297;-73
2023/05/09 11:43:37;;;;;;;4.97;3.10;;;24.10;75.30;;;;;;5116281;28;20075;-73
2023/05/09 11:46:03;;;;;;;5.57;2.72;;;23.30;77.70;;;;;;5116321;28;20317;-72
2023/05/09 11:48:29;;;;;;;6.20;2.97;;;22.00;81.60;;;;;;5118189;28;20055;-72
2023/05/09 11:50:55;;;;;;;5.22;2.80;;;21.90;82.60;;;;;;5118222;28;20077;-73
2023/05/09 11:53:21;;;;;;;6.28;3.40;;;21.70;82.50;;;;;;5116858;28;20020;-72
2023/05/09 11:55:47;;;;;;;5.40;2.92;;;21.30;83.30;;;;;;5117145;28;20484;-73
2023/05/09 11:58:12;;;;;;;6.20;2.90;;;21.30;83.70;;;;;;5118715;28;20089;-72
2023/05/09 12:00:48;;;;;;;5.47;2.88;;;21.40;83.10;;;;;;5118894;28;20046;-72
2023/05/09 12:03:13;;;;;;;7.00;3.15;;;21.60;82.60;;;;;;5118911;28;20024;-72
2023/05/09 12:05:39;;;;;;;5.13;3.20;;;21.80;82.40;;;;;;5116362;28;20082;-73
2023/05/09 12:08:05;;;;;;;5.13;3.40;;;21.50;83.30;;;;;;5118109;28;20027;-73
2023/05/09 12:10:31;;;;;;;6.57;3.25;;;21.20;84.20;;;;;;5117950;28;20027;-74
2023/05/09 12:13:00;;;;;;;7.28;3.50;;;21.10;84.50;;;;;;5117742;28;20030;-72
2023/05/09 12:15:28;;;;;;;6.57;3.30;;;21.00;84.50;;;;;;5117948;28;20120;-72
2023/05/09 12:18:05;;;;;;;4.82;2.97;;;21.10;85.80;;;;;;5116415;28;20420;-72
2023/05/09 12:20:46;;;;;;;5.35;3.03;;;21.10;84.70;;;;;;5118979;28;20362;-72
2023/05/09 12:23:13;;;;;;;5.20;3.15;;;20.70;85.30;;;;;;5116269;28;20043;-73
2023/05/09 12:25:55;;;;;;;4.72;3.38;;;20.70;84.50;;;;;;5116667;28;20059;-72
2023/05/09 12:28:23;;;;;;;5.22;3.35;;;20.80;84.70;;;;;;5117454;28;20024;-72
2023/05/09 12:30:49;;;;;;;5.20;2.85;;;21.10;84.30;;;;;;5117014;28;20035;-72
2023/05/09 12:33:16;;;;;;;5.60;3.30;;;21.70;84.10;;;;;;5117959;27;20015;-72